Anchor Point, AK

12:00 AM AKDT on April 27, 2017 (GMT -0800)
Anchor River Airpark | | Change Station

Elev 139 ft 59.79 °N, 151.85 °W | Updated 50 seconds ago

Overcast
Overcast
36.9 °F
Feels Like 37 °F
N
2.0
Wind Variable Wind from ESE

Today
High -- | Low -- °F
--% Chance of Precip.
Yesterday
High -- | Low -- °F
Precip. -- in
Pressure 29.62 in
Visibility 10.0 miles
Clouds Mostly Cloudy 2600 ft
Mostly Cloudy 7500 ft
Overcast 9000 ft
Windchill 37 °F
Dew Point 36 °F
Humidity 98%
Rainfall 0.00 in
Snow Depth Not available.
6:15 AM 9:55 PM
New Moon, 1% visible
METAR PAHO 270753Z AUTO 00000KT 10SM BKN026 BKN075 OVC090 06/02 A2962 RMK AO2 SLP031 T00610022 TSNO
Pressure 29.62 in
Visibility 10.0 miles
Clouds Mostly Cloudy 2600 ft
Mostly Cloudy 7500 ft
Overcast 9000 ft
Windchill 37 °F
Dew Point 36 °F
Humidity 98%
Rainfall 0.00 in
Snow Depth Not available.
6:15 AM 9:55 PM
New Moon, 1% visible
METAR PAHO 270753Z AUTO 00000KT 10SM BKN026 BKN075 OVC090 06/02 A2962 RMK AO2 SLP031 T00610022 TSNO

Get Severe Weather Alerts

Thanks for signing up!

Be on the lookout for a verification email in your inbox.

You'll start receiving the daily forecast at 8 AM.

×

10-Day Weather Forecast

Almanac

Astronomy

Apr. 27, 2017 Rise Set
Actual Time
Civil Twilight
Nautical Twilight
Astronomical Twilight
Moon
Length of Visible Light
Length of Day
Tomorrow will be .
, % of the Moon is Illuminated

Today's Extremes

State Highs State Lows

Community

WunderPhotos

WunderBlog® & News

Nearby

Air Quality

  Air Quality AQ Index Pollutant
Not available.

Snow Depth

Station Depth Elevation

Earthquake Activity

City Distance Mag. Time & Date
Minimum magnitude displayed is 2.5.

Coastal Water Temperatures

Place Temperature

Stations

Nearby Weather Stations

Station Location Temp. Windchill Dew Point Humidity Wind Precip. Elev Updated Type
                   

Watches & Warnings

There are currently no watches in effect.